WSSS

Singapore Changi International Airport

Singapore, Singapore
TAF AMD WSSS 230800Z 2308/2412 27006KT 9999 FEW018CB SCT020 TEMPO 2308/2310 3000 TSRA FEW012CB BKN015 TEMPO 2402/2406 3000 TSRA FEW012CB BKN015
Issued Valid From Valid To
Apr-23 @ 08:00 UTC
(an hour ago)
Apr-23 @ 08:00 UTC
(an hour ago)
Apr-24 @ 12:00 UTC
(-1 days ago)
Apr-23 @ 08:00 to Apr-24 @ 12:00
TAF AMD WSSS 230800Z 2308/2412 27006KT 9999 FEW018CB SCT020
Wind Visibility Clouds
270° at 6 knots 10,000+ meters
  • Few at 1,800' AGL
  • Scattered at 2,000' AGL
Temporary Apr-23 @ 08:00 to Apr-23 @ 10:00
TEMPO 2308/2310 3000 TSRA FEW012CB BKN015
Visibility Clouds Conditions
2,993 meters
  • Few at 1,200' AGL
  • Broken at 1,500' AGL
  • Thunderstorm
  • Rain
Temporary Apr-24 @ 02:00 to Apr-24 @ 06:00
TEMPO 2402/2406 3000 TSRA FEW012CB BKN015
Visibility Clouds Conditions
2,993 meters
  • Few at 1,200' AGL
  • Broken at 1,500' AGL
  • Thunderstorm
  • Rain
TAF AMD WSSS 230800Z 2308/2412 27006KT 9999 FEW018CB SCT020 TEMPO 2308/2310 3000 TSRA FEW012CB BKN015 TEMPO 2402/2406 3000 TSRA FEW012CB BKN015
Issued Apr-23 @ 08:00 UTC
(an hour ago)
Valid From Apr-23 @ 08:00 UTC
(an hour ago)
Valid To Apr-24 @ 12:00 UTC
(-1 days ago)
Apr-23 @ 08:00 - Apr-24 @ 12:00
Wind Visibility
270° at 6 knots 10,000+ meters
Clouds
  • Few at 1,800' AGL
  • Scattered at 2,000' AGL
Temporary Apr-23 @ 08:00 - Apr-23 @ 10:00
Clouds
  • Few at 1,200' AGL
  • Broken at 1,500' AGL
Conditions
  • Thunderstorm
  • Rain
Temporary Apr-24 @ 02:00 - Apr-24 @ 06:00
Clouds
  • Few at 1,200' AGL
  • Broken at 1,500' AGL
Conditions
  • Thunderstorm
  • Rain